x

San Clemente Basin - 27nm Se Of San Clemente Is, Ca (46086) Wave Buoy

11:50am - Sun 3rd May 2015 All times are PDT. -7 hours from GMT.

  • Sig Wave height 5.6ft
  • Swell Direction
  • Peak Period 21s
  • Average Period 8s
  • Wind
    16mph, 18mph gusts
  • Sea Temp 65°f
  • Air Temp 61°f
  • Sea Pressure 1014.2mb
  • San Clemente Basin - 27nm Se Of San Clemente Is, Ca
  • San Clemente Basin - 27nm Se Of San Clemente Is, Ca

More Historic Weather Station data

Upgrade to MSW Pro to gain access to the past 30 days of data for over 8000 Wavebouys and Weather Stations around the globe.

Join Pro

Comparision Forecast

View Surf forecast
   
Sun 05/03 11:50am 5.5ft 21s 8s 16 18 mph 1014.2mb 65f 61f
10:50am 5ft 24s 8s 7 11 mph 1014.4mb 65f 61f
9:50am 5.5ft 24s 8s 7 9 mph 1014mb 65f 61f
8:50am 5ft 17s 8s 7 9 mph 1013.6mb 65f 61f
7:50am 6ft 24s 8s 9 11 mph 1013mb 65f 61f
6:50am 5.5ft 24s 9s 11 13 mph 1012.2mb 64f 60f
5:50am 6ft 24s 8s 11 13 mph 1011.9mb 64f 60f
4:50am 5ft 17s 7s 9 11 mph 1011.8mb 64f 60f
3:50am 5ft 21s 7s 13 16 mph 1011.4mb 65f 61f
2:50am 5ft 17s 7s 13 16 mph 1011.7mb 65f 61f
1:50am 5ft 10s 7s 13 16 mph 1012mb 65f 61f
12:50am 5ft 10s 6s 9 11 mph 1012.6mb 65f 61f
Sat 05/02 11:50pm 5ft 10s 7s 7 11 mph 1012.4mb 65f 61f
10:50pm 4.5ft 17s 6s 7 11 mph 1012.3mb 65f 61f
9:50pm 5ft 15s 6s 7 11 mph 1012.3mb 65f 61f
8:50pm 5ft 10s 6s 11 13 mph 1011.5mb 65f 61f
7:50pm 5ft 11s 6s 11 13 mph 1011.1mb 65f 61f
6:50pm 4.5ft 11s 6s 11 16 mph 1011.1mb 65f 62f
5:50pm 5ft 24s 6s 11 16 mph 1011mb 65f 62f
4:50pm 5ft 11s 7s 11 16 mph 1011.2mb 65f 62f
3:50pm 4.5ft 10s 6s 11 13 mph 1011.2mb 65f 62f
2:50pm 4ft 11s 6s 11 13 mph 1011.5mb 65f 62f
1:50pm 4.5ft 10s 6s 13 16 mph 1011.7mb 65f 62f
12:50pm 4.5ft 11s 6s 16 18 mph 1012.1mb 65f 62f
11:50am 4ft 10s 6s 11 13 mph 1012.7mb 65f 62f
10:50am 4.5ft 11s 6s 11 13 mph 1012.7mb 65f 62f
9:50am 4.5ft 11s 7s 13 16 mph 1012.2mb 65f 62f
8:50am 4.5ft 10s 7s 9 11 mph 1012mb 64f 62f
7:50am 4.5ft 11s 6s 7 11 mph 1011.5mb 64f 62f
6:50am 4.5ft 11s 7s 2 4 mph 1011.1mb 64f 62f
5:50am 4.5ft 11s 6s 4 7 mph 1010.8mb 64f 62f
4:50am 4.5ft 11s 6s 4
mph
1010.4mb 64f 62f
3:50am 4.5ft 11s 6s 7 9 mph 1010.6mb 64f 63f
2:50am 5ft 11s 6s 9 11 mph 1010.8mb 64f 62f
1:50am 5ft 11s 6s 9 11 mph 1011.3mb 64f 63f
12:50am 5ft 11s 6s 7 11 mph 1011.9mb 64f 63f
Fri 05/01 11:50pm 5ft 11s 6s 7 9 mph 1012.1mb 65f 63f
10:50pm 5ft 11s 6s 4 7 mph 1011.9mb 65f 63f
9:50pm 5ft 5s 6s 9 11 mph 1011.7mb 64f 63f
8:50pm 5ft 11s 6s 13 16 mph 1011.3mb 64f 64f
7:50pm 5ft 11s 6s 16 18 mph 1010.8mb 64f 63f
6:50pm 5ft 11s 5s 18 22 mph 1010.4mb 65f 63f
5:50pm 5ft 12s 5s 18 22 mph 1010.4mb 65f 63f
4:50pm 5ft 11s 5s 18 22 mph 1010.6mb 65f 63f
3:50pm 4.5ft 11s 5s 20 22 mph 1010.8mb 65f 63f
2:50pm 4.5ft 11s 6s 18 20 mph 1011.6mb 65f 63f
1:50pm 4.5ft 13s 7s 18 20 mph 1012mb 65f 63f
12:50pm 4.5ft 12s 7s 13 18 mph 1012.3mb 65f 63f
11:50am 5ft 10s 7s 11 13 mph 1012.7mb 65f 63f
10:50am 5ft 11s 8s 9 11 mph 1012.7mb 65f 62f
9:50am 5ft 11s 7s 9 11 mph 1012.5mb 64f 62f
8:50am 5ft 12s 7s 9 11 mph 1012.2mb 64f 62f
7:50am 5ft 12s 7s 11 13 mph 1011.9mb 64f 61f
6:50am 5.5ft 11s 7s 11 13 mph 1011.4mb 64f 62f
5:50am 5.5ft 11s 7s 13 16 mph 1010.8mb 64f 62f
4:50am 5ft 11s 7s 11 13 mph 1011mb 64f 62f
3:50am 5ft 11s 7s 9 11 mph 1011.1mb 64f 62f
2:50am 5ft 12s 7s 11 13 mph 1010.9mb 64f 62f
1:50am 5.5ft 12s 7s 9 11 mph 1011.2mb 64f 62f
12:50am 6ft 13s 7s 9 11 mph 1011.5mb 64f 62f
Thu 04/30 11:50pm 6.5ft 12s 8s 9 11 mph 1011.6mb 64f 62f
10:50pm 6ft 12s 7s 9 11 mph 1011.4mb 64f 62f
9:50pm 6ft 12s 7s 11 13 mph 1010.9mb 64f 62f
8:50pm 6.5ft 12s 7s 11 16 mph 1010.2mb 64f 63f
7:50pm 6.5ft 12s 7s 13 16 mph 1009.4mb 64f 63f
6:50pm 6.5ft 12s 7s 16 20 mph 1008.8mb 64f 63f
5:50pm 6.5ft 11s 7s 18 20 mph 1009mb 64f 63f
4:50pm 6.5ft 12s 8s 18 20 mph 1009.4mb 64f 63f
3:50pm 6ft 12s 7s 16 20 mph 1009.9mb 64f 63f
2:50pm 7ft 11s 8s 16 18 mph 1010.3mb 65f 63f
1:50pm 7ft 11s 8s 11 13 mph 1010.7mb 65f 63f
12:50pm 6.5ft 13s 8s 11 13 mph 1011mb 65f 63f
11:50am 6ft 12s 7s 11 13 mph 1011.3mb 64f 63f
10:50am 6ft 10s 8s 9 11 mph 1011.2mb 64f 63f
9:50am 6ft 11s 8s 9 11 mph 1011.2mb 64f 62f
8:50am 6ft 11s 8s 9 11 mph 1010.7mb 64f 62f
7:50am 6ft 11s 8s 11 13 mph 1010.5mb 64f 62f
6:50am 5ft 11s 7s 11 13 mph 1010mb 64f 62f
5:50am 5ft 11s 7s 11 13 mph 1009.5mb 64f 62f
4:50am 5ft 14s 7s 11 13 mph 1009.1mb 64f 62f
3:50am 5ft 10s 7s 11 13 mph 1009.4mb 64f 62f
2:50am 5ft 10s 6s 11
mph
1009.4mb 64f 62f
1:50am 5ft 11s 6s 9
mph
1009.6mb 64f 62f
12:50am 5ft 10s 6s 7
mph
1009.9mb 64f 63f
Wed 04/29 11:50pm 5.5ft 9s 6s 7
mph
1010mb 64f 63f
10:50pm 5ft 9s 6s 9 11 mph 1010.2mb 64f 63f
9:50pm 5ft 16s 6s 11 13 mph 1010.2mb 64f 63f
8:50pm 5ft 8s 6s 11 13 mph 1009.8mb 64f 63f